HSSSHSPN

Guest
Details From HSSS - KHARTOUM
To HSPN - PORT SUDAN
Flight Number -
Tags generated
Created
Modified
Stats Distance 355 nm / 657 km
Max Altitude 35,000 ft / 10,668 m
Waypoints 4
Social Downloads 0
Likes 0
Share VATSIM

Download

Looking for another format? Having issues loading an existing format? Contact us
Advertisement - Login to hide

Notes

Basic altitude profile: - Ascent Rate: 2500ft/min - Ascent Speed: 250kts - Cruise Altitude: 35000ft - Cruise Speed: 420kts - Descent Rate: 1500ft/min - Descent Speed: 250kts Options: - Use NATs: yes - Use PACOTS: yes - Use low airways: yes - Use high airways: yes

Route

HSSS BOPID G660D PSD HSPN

ID Type Via Altitude Latitude Longitude Leg Dist Tot Dist Heading (true) Name
O HSSS APT - 0 ft / 0 m 15.58950˚ 32.55316˚ - 0 nm - KHARTOUM
BOPID FIX - 35,000 ft / 10,668 m 16.66294˚ 33.86102˚ 99 nm 99 nm 49° / 50° -
PSD VOR G660D (AWY-LO) 7,500 ft / 2,286 m 19.40118˚ 37.24171˚ 253 nm 352 nm 49° / 50° PORT SUDAN VOR-DME
O HSPN APT - 0 ft / 0 m 19.43362˚ 37.23408˚ 1 nm 354 nm 347° / 347° PORT SUDAN

Altitude Profile

Advertisement - Login to hide

Weather


0- 5 10 15 20 25 30 35+ Temperature / ° C

Clouds and Precipitation
Forecast for 2018-05-25 12:00 UTC. Updated 2 hours ago

Ground ~20,000 ft ~40,000 ft Winds

HSSS

Details ICAO HSSS (KRT)
Name KHARTOUM
Region Sudan and South Sudan
Timezone Africa/Khartoum (UTC+2.0)
Stats Elevation 1,265 ft / 386 m (AMSL)
Location 15.589499° 32.553159°
Runways 1
Magnetic Variation 3.419° E

METAR

HSSS 251330Z 00000KT CAVOK 39/10 Q1006 NOSIG

Decode

TAF

TAF HSSS 251100Z 2512/2618 22008GKT 9999 FEW040 BKN140 TEMPO 2515/2519 4000 BLSA TEMPO 2518/2600 6000 SHRA BKB140

Decode

Departure Runways

ID Width Length Bearing (true) Bearing (mag) Surface Threshold Offset Overrun Length
18 148 ft / 45 m 9,822 ft / 2,994 m 179.48° 176.06° Asphalt 0 ft / 0 m 220 ft / 67 m
36 148 ft / 45 m 9,822 ft / 2,994 m 359.48° 356.06° Asphalt 0 ft / 0 m 215 ft / 66 m

HSPN

Details ICAO HSPN (PZU)
Name PORT SUDAN
Region Sudan and South Sudan
Timezone Africa/Khartoum (UTC+2.0)
Stats Elevation 135 ft / 41 m (AMSL)
Location 19.433620° 37.234079°
Runways 1
Magnetic Variation 3.502° E

METAR

HSPN 251300Z 01018KT CAVOK 37/18 Q1005

Decode

TAF

TAF HSPN 251100Z 2512/2618 05008G18KT CAVOK TEMPO 2512/2516 6000 BECMG 2520/2522 24006KT

Decode

Destination Runways

ID Width Length Bearing (true) Bearing (mag) Surface Threshold Offset Overrun Length
17 148 ft / 45 m 8,241 ft / 2,512 m 167.49° 163.99° Asphalt 0 ft / 0 m 200 ft / 61 m
35 148 ft / 45 m 8,241 ft / 2,512 m 347.49° 343.99° Asphalt 0 ft / 0 m 200 ft / 61 m

Popular Alternatives